createdAt,value
2019-03-13T00:00:55.690Z,6.15
2019-03-13T00:03:24.855Z,6.00
2019-03-13T00:05:54.177Z,5.88
2019-03-13T00:08:23.057Z,5.81
2019-03-13T00:10:52.036Z,5.75
2019-03-13T00:13:20.981Z,5.82
2019-03-13T00:15:50.103Z,5.85
2019-03-13T00:18:19.001Z,5.84
2019-03-13T00:20:47.916Z,5.90
2019-03-13T00:23:17.369Z,5.90
2019-03-13T00:25:46.224Z,5.89
2019-03-13T00:28:15.158Z,5.89
2019-03-13T00:30:44.045Z,5.84
2019-03-13T00:33:13.030Z,5.77
2019-03-13T00:35:42.013Z,5.85
2019-03-13T00:38:11.032Z,5.91
2019-03-13T00:40:39.949Z,5.89
2019-03-13T00:43:08.861Z,5.80
2019-03-13T00:45:37.740Z,5.77
2019-03-13T00:48:06.764Z,5.75
2019-03-13T00:50:35.551Z,5.81
2019-03-13T00:53:04.465Z,5.89
2019-03-13T00:55:33.408Z,5.84
2019-03-13T00:58:02.288Z,5.76
2019-03-13T01:01:04.781Z,5.78
2019-03-13T01:03:41.260Z,5.84
2019-03-13T01:06:17.601Z,5.75
2019-03-13T01:08:48.902Z,5.64
2019-03-13T01:11:20.312Z,5.53
2019-03-13T01:13:51.538Z,5.66
2019-03-13T01:16:22.535Z,5.59
2019-03-13T01:18:53.538Z,5.62
2019-03-13T01:21:25.195Z,5.53
2019-03-13T01:23:57.484Z,5.45
2019-03-13T01:26:29.360Z,5.48
2019-03-13T01:28:58.341Z,5.35
2019-03-13T01:31:44.216Z,5.40
2019-03-13T01:34:23.461Z,5.38
2019-03-13T01:36:52.426Z,5.44
2019-03-13T01:39:21.284Z,5.44
2019-03-13T01:41:50.290Z,5.28
2019-03-13T01:44:19.234Z,5.32
2019-03-13T01:46:48.217Z,5.32
2019-03-13T01:49:17.118Z,5.30
2019-03-13T01:51:46.089Z,5.26
2019-03-13T01:54:15.091Z,5.26
2019-03-13T01:56:43.849Z,5.19
2019-03-13T01:59:12.723Z,5.24
2019-03-13T02:01:41.638Z,5.05
2019-03-13T02:04:10.534Z,5.19
2019-03-13T02:06:39.681Z,5.17
2019-03-13T02:09:08.741Z,4.96
2019-03-13T02:11:37.815Z,4.93
2019-03-13T02:14:06.763Z,4.96
2019-03-13T02:16:35.759Z,4.98
2019-03-13T02:19:04.762Z,5.02
2019-03-13T02:21:33.593Z,5.00
2019-03-13T02:24:02.400Z,5.00
2019-03-13T02:26:31.353Z,5.12
2019-03-13T02:29:00.333Z,5.08
2019-03-13T02:31:29.270Z,5.10
2019-03-13T02:33:58.209Z,4.98
2019-03-13T02:36:27.138Z,4.96
2019-03-13T02:38:56.066Z,4.89
2019-03-13T02:41:24.912Z,4.98
2019-03-13T02:43:53.910Z,5.00
2019-03-13T02:46:22.857Z,5.05
2019-03-13T02:48:51.761Z,4.96
2019-03-13T02:51:20.764Z,4.87
2019-03-13T02:53:49.592Z,4.79
2019-03-13T02:56:18.506Z,4.75
2019-03-13T02:58:47.517Z,4.69
2019-03-13T03:01:30.478Z,4.65
2019-03-13T03:04:01.516Z,4.60
2019-03-13T03:06:30.404Z,4.63
2019-03-13T03:08:59.439Z,4.58
2019-03-13T03:11:28.414Z,4.61
2019-03-13T03:13:57.275Z,4.61
2019-03-13T03:16:26.910Z,4.69
2019-03-13T03:18:55.856Z,4.73
2019-03-13T03:21:24.763Z,4.72
2019-03-13T03:23:53.665Z,4.72
2019-03-13T03:26:22.555Z,4.64
2019-03-13T03:28:51.429Z,4.61
2019-03-13T03:31:20.191Z,4.54
2019-03-13T03:34:03.026Z,4.47
2019-03-13T03:36:32.419Z,4.39
2019-03-13T03:39:01.392Z,4.28
2019-03-13T03:41:31.006Z,4.20
2019-03-13T03:43:59.994Z,4.09
2019-03-13T03:46:28.910Z,4.11
2019-03-13T03:48:57.795Z,4.08
2019-03-13T03:51:26.686Z,4.24
2019-03-13T03:53:55.628Z,4.22
2019-03-13T03:56:24.439Z,4.25
2019-03-13T03:58:53.414Z,4.24
2019-03-13T04:01:22.377Z,4.13
2019-03-13T04:03:51.333Z,4.24
2019-03-13T04:06:20.512Z,4.27
2019-03-13T04:08:49.403Z,4.30
2019-03-13T04:11:18.390Z,4.39
2019-03-13T04:13:47.310Z,4.37
2019-03-13T04:16:16.198Z,4.36
2019-03-13T04:18:45.199Z,4.37
2019-03-13T04:21:14.087Z,4.50
2019-03-13T04:23:42.952Z,4.57
2019-03-13T04:26:13.093Z,4.50
2019-03-13T04:28:42.360Z,4.47
2019-03-13T04:31:11.468Z,4.52
2019-03-13T04:33:40.323Z,4.53
2019-03-13T04:36:09.214Z,4.57
2019-03-13T04:38:38.060Z,4.52
2019-03-13T04:41:06.845Z,4.61
2019-03-13T04:43:35.755Z,4.55
2019-03-13T04:46:04.721Z,4.58
2019-03-13T04:48:33.518Z,4.65
2019-03-13T04:51:02.623Z,4.67
2019-03-13T04:53:31.461Z,4.63
2019-03-13T04:56:00.374Z,4.63
2019-03-13T04:58:29.283Z,4.66
2019-03-13T05:00:58.156Z,4.76
2019-03-13T05:03:27.038Z,4.76
2019-03-13T05:06:01.631Z,4.77
2019-03-13T05:08:45.037Z,4.80
2019-03-13T05:11:07.510Z,4.71
2019-03-13T05:13:36.402Z,4.65
2019-03-13T05:16:05.284Z,4.65
2019-03-13T05:18:34.163Z,4.72
2019-03-13T05:21:03.317Z,4.80
2019-03-13T05:23:32.195Z,4.76
2019-03-13T05:26:01.046Z,4.87
2019-03-13T05:28:29.809Z,4.89
2019-03-13T05:30:58.676Z,4.96
2019-03-13T05:33:27.452Z,5.05
2019-03-13T05:35:56.301Z,5.08
2019-03-13T05:38:25.075Z,5.06
2019-03-13T05:40:53.939Z,5.25
2019-03-13T05:43:22.858Z,5.16
2019-03-13T05:45:51.694Z,5.17
2019-03-13T05:48:20.575Z,5.19
2019-03-13T05:50:49.453Z,5.23
2019-03-13T05:53:18.350Z,5.16
2019-03-13T05:55:47.442Z,5.16
2019-03-13T05:58:16.411Z,5.06
2019-03-13T06:00:46.021Z,4.98
2019-03-13T06:03:15.046Z,5.01
2019-03-13T06:05:43.948Z,5.00
2019-03-13T06:08:12.910Z,5.03
2019-03-13T06:10:41.866Z,5.07
2019-03-13T06:13:10.722Z,5.12
2019-03-13T06:15:39.560Z,5.07
2019-03-13T06:18:09.983Z,5.07
2019-03-13T06:20:38.918Z,5.05
2019-03-13T06:23:07.902Z,5.09
2019-03-13T06:25:36.704Z,5.09
2019-03-13T06:28:05.687Z,5.12
2019-03-13T06:30:34.793Z,5.14
2019-03-13T06:33:03.671Z,5.14
2019-03-13T06:35:32.591Z,5.11
2019-03-13T06:38:01.527Z,5.09
2019-03-13T06:40:30.457Z,5.02
2019-03-13T06:42:59.337Z,5.07
2019-03-13T06:45:28.292Z,5.06
2019-03-13T06:47:57.355Z,5.10
2019-03-13T06:50:26.297Z,5.20
2019-03-13T06:52:55.219Z,5.23
2019-03-13T06:55:24.240Z,5.29
2019-03-13T06:57:53.073Z,5.36
2019-03-13T07:00:37.427Z,5.42
2019-03-13T07:03:19.772Z,5.47
2019-03-13T07:06:10.846Z,5.51
2019-03-13T07:08:56.385Z,5.51
2019-03-13T07:11:47.151Z,5.65
2019-03-13T07:14:21.908Z,5.76
2019-03-13T07:17:01.984Z,5.62
2019-03-13T07:19:49.978Z,5.52
2019-03-13T07:22:36.482Z,5.59
2019-03-13T07:25:30.455Z,5.70
2019-03-13T07:28:16.867Z,5.70
2019-03-13T07:31:10.826Z,5.74
2019-03-13T07:34:06.460Z,5.77
2019-03-13T07:36:45.584Z,5.81
2019-03-13T07:39:38.854Z,5.91
2019-03-13T07:42:17.792Z,5.91
2019-03-13T07:45:14.827Z,5.61
2019-03-13T07:47:54.090Z,5.89
2019-03-13T07:50:35.487Z,5.89
2019-03-13T07:53:26.320Z,5.95
2019-03-13T07:56:04.425Z,6.03
2019-03-13T07:58:52.720Z,6.10
2019-03-13T08:01:43.392Z,6.23
2019-03-13T08:04:19.075Z,6.21
2019-03-13T08:07:13.133Z,6.37
2019-03-13T08:10:00.956Z,6.39
2019-03-13T08:12:56.492Z,6.66
2019-03-13T08:15:43.333Z,6.80
2019-03-13T08:18:31.340Z,6.56
2019-03-13T08:21:25.656Z,6.66
2019-03-13T08:24:19.619Z,6.62
2019-03-13T08:27:16.602Z,6.39
2019-03-13T08:30:06.748Z,6.42
2019-03-13T08:32:53.293Z,6.09
2019-03-13T08:35:44.285Z,5.69
2019-03-13T08:38:35.025Z,5.65
2019-03-13T08:41:32.205Z,5.69
2019-03-13T08:44:32.477Z,5.81
2019-03-13T08:47:32.577Z,5.92
2019-03-13T08:50:07.829Z,6.13
2019-03-13T08:53:10.767Z,6.14
2019-03-13T08:56:01.659Z,6.19
2019-03-13T08:58:47.270Z,6.19
2019-03-13T09:01:27.548Z,6.27
2019-03-13T09:04:06.499Z,6.48
2019-03-13T09:06:46.895Z,6.48
2019-03-13T09:09:32.077Z,6.31
2019-03-13T09:12:23.385Z,6.46
2019-03-13T09:14:58.040Z,6.66
2019-03-13T09:17:43.635Z,6.70
2019-03-13T09:20:46.789Z,6.83
2019-03-13T09:23:33.310Z,6.91
2019-03-13T09:26:20.013Z,6.81
2019-03-13T09:28:58.585Z,6.92
2019-03-13T09:31:47.400Z,6.84
2019-03-13T09:34:32.912Z,6.92
2019-03-13T09:37:14.864Z,6.88
2019-03-13T09:40:01.655Z,6.91
2019-03-13T09:42:43.189Z,6.91
2019-03-13T09:45:37.545Z,6.81
2019-03-13T09:48:28.528Z,6.69
2019-03-13T09:51:07.761Z,6.51
2019-03-13T09:53:54.440Z,6.72
2019-03-13T09:56:33.848Z,6.69
2019-03-13T09:59:43.328Z,6.83
2019-03-13T10:02:25.821Z,6.93
2019-03-13T10:05:16.221Z,7.11
2019-03-13T10:08:04.032Z,7.17
2019-03-13T10:10:42.455Z,6.95
2019-03-13T10:13:24.761Z,6.90
2019-03-13T10:16:31.044Z,7.01
2019-03-13T10:19:22.420Z,7.27
2019-03-13T10:21:58.016Z,7.27
2019-03-13T10:24:54.803Z,7.47
2019-03-13T10:27:44.938Z,7.42
2019-03-13T10:30:51.573Z,7.51
2019-03-13T10:33:32.796Z,7.59
2019-03-13T10:36:36.217Z,7.82
2019-03-13T10:39:41.767Z,7.78
2019-03-13T10:42:32.447Z,7.74
2019-03-13T10:45:09.862Z,7.79
2019-03-13T10:47:54.216Z,7.82
2019-03-13T10:50:42.148Z,7.79
2019-03-13T10:53:39.091Z,8.05
2019-03-13T10:56:25.920Z,7.90
2019-03-13T10:59:12.792Z,7.91
2019-03-13T11:01:51.681Z,7.77
2019-03-13T11:04:38.241Z,7.79
2019-03-13T11:07:16.027Z,8.01
2019-03-13T11:09:51.390Z,8.09
2019-03-13T11:12:31.818Z,7.93
2019-03-13T11:15:08.912Z,7.85
2019-03-13T11:17:50.712Z,7.86
2019-03-13T11:20:38.637Z,7.90
2019-03-13T11:23:14.082Z,7.83
2019-03-13T11:25:54.320Z,8.01
2019-03-13T11:28:32.449Z,8.36
2019-03-13T11:31:20.309Z,8.76
2019-03-13T11:34:14.592Z,8.91
2019-03-13T11:37:02.559Z,8.55
2019-03-13T11:39:56.437Z,8.25
2019-03-13T11:42:38.203Z,8.27
2019-03-13T11:45:25.182Z,8.47
2019-03-13T11:48:25.224Z,8.40
2019-03-13T11:51:22.684Z,8.71
2019-03-13T11:54:10.685Z,8.79
2019-03-13T11:56:48.920Z,8.82
2019-03-13T11:59:33.999Z,8.95
2019-03-13T12:02:30.864Z,8.74
2019-03-13T12:05:09.281Z,8.56
2019-03-13T12:07:53.817Z,8.74
2019-03-13T12:10:44.139Z,8.96
2019-03-13T12:13:19.789Z,8.57
2019-03-13T12:16:11.175Z,8.25
2019-03-13T12:19:08.204Z,8.03
2019-03-13T12:21:53.206Z,8.11
2019-03-13T12:24:41.249Z,8.18
2019-03-13T12:27:35.423Z,8.41
2019-03-13T12:30:16.635Z,8.35
2019-03-13T12:33:10.611Z,8.51
2019-03-13T12:36:00.521Z,8.54
2019-03-13T12:38:57.708Z,8.43
2019-03-13T12:41:44.304Z,8.36
2019-03-13T12:44:23.099Z,8.48
2019-03-13T12:47:07.216Z,8.37
2019-03-13T12:49:49.837Z,8.14
2019-03-13T12:52:31.040Z,7.56
2019-03-13T12:55:25.102Z,7.61
2019-03-13T12:58:00.055Z,7.55
2019-03-13T13:00:57.849Z,7.52
2019-03-13T13:03:41.431Z,7.55
2019-03-13T13:06:16.481Z,7.56
2019-03-13T13:09:04.269Z,7.56
2019-03-13T13:11:51.070Z,7.78
2019-03-13T13:14:36.787Z,7.96
2019-03-13T13:17:30.699Z,7.98
2019-03-13T13:19:59.549Z,8.12
2019-03-13T13:22:28.535Z,8.37
2019-03-13T13:24:57.516Z,8.49
2019-03-13T13:27:26.516Z,8.40
2019-03-13T13:29:55.476Z,8.44
2019-03-13T13:32:24.476Z,8.39
2019-03-13T13:34:53.350Z,8.31
2019-03-13T13:37:22.131Z,8.36
2019-03-13T13:39:50.997Z,8.15
2019-03-13T13:42:19.941Z,8.25
2019-03-13T13:44:48.766Z,8.46
2019-03-13T13:47:17.636Z,8.48
2019-03-13T13:49:58.856Z,8.34
2019-03-13T13:52:17.434Z,8.44
2019-03-13T13:54:46.326Z,8.47
2019-03-13T13:57:15.347Z,8.65
2019-03-13T13:59:44.403Z,8.50
2019-03-13T14:02:13.393Z,8.44
2019-03-13T14:04:42.380Z,8.45
2019-03-13T14:07:11.369Z,8.58
2019-03-13T14:09:40.269Z,8.51
2019-03-13T14:12:09.223Z,8.49
2019-03-13T14:14:38.097Z,8.42
2019-03-13T14:17:06.910Z,8.41
2019-03-13T14:19:35.678Z,8.34
2019-03-13T14:22:04.673Z,8.00
2019-03-13T14:24:33.551Z,7.83
2019-03-13T14:27:13.966Z,7.81
2019-03-13T14:29:33.207Z,7.84
2019-03-13T14:32:02.019Z,7.74
2019-03-13T14:34:31.020Z,7.74
2019-03-13T14:36:59.954Z,7.71
2019-03-13T14:39:28.787Z,7.46
2019-03-13T14:41:57.759Z,7.64
2019-03-13T14:44:26.676Z,7.75
2019-03-13T14:46:55.587Z,7.65
2019-03-13T14:49:24.527Z,7.65
2019-03-13T14:51:53.516Z,7.66
2019-03-13T14:54:22.420Z,7.81
2019-03-13T14:56:51.311Z,7.86
2019-03-13T14:59:20.336Z,7.72
2019-03-13T15:01:49.202Z,7.72
2019-03-13T15:04:18.271Z,7.80
2019-03-13T15:06:47.157Z,7.76
2019-03-13T15:09:16.041Z,7.78
2019-03-13T15:11:46.194Z,7.81
2019-03-13T15:14:15.225Z,7.93
2019-03-13T15:16:44.250Z,7.80
2019-03-13T15:19:13.104Z,7.77
2019-03-13T15:21:42.068Z,7.72
2019-03-13T15:24:10.930Z,7.73
2019-03-13T15:26:39.687Z,7.79
2019-03-13T15:29:08.783Z,7.85
2019-03-13T15:31:37.696Z,7.89
2019-03-13T15:34:06.767Z,7.88
2019-03-13T15:36:35.666Z,7.90
2019-03-13T15:39:07.215Z,7.71
2019-03-13T15:41:36.209Z,7.59
2019-03-13T15:44:05.228Z,7.38
2019-03-13T15:46:34.227Z,7.32
2019-03-13T15:49:03.307Z,7.30
2019-03-13T15:51:32.084Z,7.34
2019-03-13T15:54:00.976Z,7.41
2019-03-13T15:56:29.901Z,7.11
2019-03-13T15:58:58.830Z,6.93
2019-03-13T16:01:27.650Z,6.88
2019-03-13T16:03:56.490Z,6.87
2019-03-13T16:06:25.402Z,6.87
2019-03-13T16:08:54.327Z,6.91
2019-03-13T16:11:23.225Z,6.98
2019-03-13T16:13:52.219Z,6.92
2019-03-13T16:16:21.210Z,6.70
2019-03-13T16:18:50.134Z,6.69
2019-03-13T16:21:19.002Z,6.80
2019-03-13T16:23:48.282Z,6.74
2019-03-13T16:26:17.090Z,6.66
2019-03-13T16:28:46.061Z,6.66
2019-03-13T16:31:14.977Z,6.62
2019-03-13T16:33:43.897Z,6.48
2019-03-13T16:36:12.652Z,6.79
2019-03-13T16:38:41.936Z,6.88
2019-03-13T16:41:11.179Z,6.92
2019-03-13T16:43:40.117Z,6.96
2019-03-13T16:46:09.063Z,6.98
2019-03-13T16:48:37.968Z,6.99
2019-03-13T16:51:06.971Z,6.97
2019-03-13T16:53:35.865Z,6.99
2019-03-13T16:56:05.975Z,7.04
2019-03-13T16:58:34.926Z,6.99
2019-03-13T17:01:03.953Z,6.98
2019-03-13T17:03:32.849Z,6.99
2019-03-13T17:06:01.699Z,6.93
2019-03-13T17:08:30.480Z,6.91
2019-03-13T17:10:59.380Z,6.92
2019-03-13T17:13:28.267Z,6.92
2019-03-13T17:15:57.258Z,6.92
2019-03-13T17:18:26.279Z,6.86
2019-03-13T17:20:55.120Z,6.78
2019-03-13T17:23:24.066Z,6.77
2019-03-13T17:25:52.904Z,6.75
2019-03-13T17:28:21.982Z,6.72
2019-03-13T17:30:50.890Z,6.69
2019-03-13T17:33:19.726Z,6.62
2019-03-13T17:35:48.628Z,6.66
2019-03-13T17:38:17.462Z,6.62
2019-03-13T17:40:46.372Z,6.61
2019-03-13T17:43:15.276Z,6.56
2019-03-13T17:45:44.146Z,6.60
2019-03-13T17:48:13.221Z,6.54
2019-03-13T17:50:42.248Z,6.51
2019-03-13T17:53:11.231Z,6.55
2019-03-13T17:55:40.235Z,6.55
2019-03-13T17:58:09.347Z,6.60
2019-03-13T18:00:44.447Z,6.62
2019-03-13T18:03:13.555Z,6.64
2019-03-13T18:05:42.443Z,6.60
2019-03-13T18:08:11.396Z,6.55
2019-03-13T18:10:40.321Z,6.40
2019-03-13T18:13:09.404Z,6.22
2019-03-13T18:15:38.349Z,6.10
2019-03-13T18:18:07.232Z,6.04
2019-03-13T18:20:36.237Z,6.01
2019-03-13T18:23:05.221Z,5.92
2019-03-13T18:25:34.216Z,5.82
2019-03-13T18:28:03.089Z,5.78
2019-03-13T18:30:32.285Z,5.85
2019-03-13T18:33:01.148Z,5.83
2019-03-13T18:35:30.101Z,5.86
2019-03-13T18:37:59.028Z,5.90
2019-03-13T18:40:28.012Z,5.93
2019-03-13T18:42:57.089Z,5.96
2019-03-13T18:45:26.623Z,5.95
2019-03-13T18:47:55.638Z,5.92
2019-03-13T18:50:24.568Z,5.72
2019-03-13T18:52:53.636Z,5.24
2019-03-13T18:55:22.989Z,4.97
2019-03-13T18:57:51.988Z,4.84
2019-03-13T19:00:23.129Z,4.69
2019-03-13T19:02:52.137Z,4.63
2019-03-13T19:05:21.285Z,4.61
2019-03-13T19:07:50.229Z,4.51
2019-03-13T19:10:19.592Z,4.44
2019-03-13T19:12:48.564Z,4.39
2019-03-13T19:15:19.723Z,4.23
2019-03-13T19:17:51.984Z,4.21
2019-03-13T19:20:21.906Z,4.08
2019-03-13T19:22:51.299Z,4.14
2019-03-13T19:25:20.520Z,4.07
2019-03-13T19:27:49.492Z,4.05
2019-03-13T19:30:20.531Z,4.04
2019-03-13T19:32:49.585Z,3.99
2019-03-13T19:35:18.827Z,3.96
2019-03-13T19:37:47.798Z,4.05
2019-03-13T19:40:17.003Z,4.15
2019-03-13T19:42:45.890Z,4.29
2019-03-13T19:45:17.214Z,4.41
2019-03-13T19:47:46.105Z,4.61
2019-03-13T19:50:15.159Z,4.75
2019-03-13T19:52:47.241Z,4.77
2019-03-13T19:55:14.963Z,4.88
2019-03-13T19:57:43.954Z,4.86
2019-03-13T20:00:14.806Z,4.88
2019-03-13T20:02:43.690Z,4.86
2019-03-13T20:05:13.452Z,4.85
2019-03-13T20:07:42.640Z,4.87
2019-03-13T20:10:14.255Z,4.84
2019-03-13T20:12:43.221Z,4.84
2019-03-13T20:15:14.184Z,4.84
2019-03-13T20:17:43.233Z,4.76
2019-03-13T20:20:13.281Z,4.76
2019-03-13T20:22:42.405Z,4.75
2019-03-13T20:25:11.870Z,4.77
2019-03-13T20:27:40.843Z,4.70
2019-03-13T20:30:12.420Z,4.67
2019-03-13T20:32:41.250Z,4.69
2019-03-13T20:35:10.480Z,4.71
2019-03-13T20:37:39.458Z,4.74
2019-03-13T20:40:10.473Z,4.79
2019-03-13T20:42:39.464Z,4.79
2019-03-13T20:45:09.971Z,4.90
2019-03-13T20:47:38.903Z,4.87
2019-03-13T20:50:08.127Z,4.57
2019-03-13T20:52:37.243Z,5.04
2019-03-13T20:55:06.672Z,5.09
2019-03-13T20:57:35.651Z,5.03
2019-03-13T21:00:05.457Z,4.96
2019-03-13T21:02:34.430Z,5.03
2019-03-13T21:05:03.343Z,4.91
2019-03-13T21:07:32.227Z,4.93
2019-03-13T21:10:01.210Z,4.90
2019-03-13T21:12:30.168Z,5.04
2019-03-13T21:14:59.183Z,5.11
2019-03-13T21:17:28.282Z,5.03
2019-03-13T21:19:57.260Z,5.03
2019-03-13T21:22:26.141Z,4.97
2019-03-13T21:24:55.021Z,5.05
2019-03-13T21:27:24.007Z,5.07
2019-03-13T21:29:52.863Z,4.98
2019-03-13T21:32:21.731Z,4.93
2019-03-13T21:34:50.669Z,4.87
2019-03-13T21:37:19.556Z,4.88
2019-03-13T21:39:48.323Z,4.93
2019-03-13T21:42:17.345Z,4.97
2019-03-13T21:44:46.324Z,4.97
2019-03-13T21:47:15.334Z,5.01
2019-03-13T21:49:45.378Z,4.97
2019-03-13T21:52:14.251Z,4.90
2019-03-13T21:54:43.107Z,4.81
2019-03-13T21:57:12.004Z,4.77
2019-03-13T21:59:41.320Z,4.80
2019-03-13T22:02:10.185Z,4.72
2019-03-13T22:04:39.178Z,4.75
2019-03-13T22:07:08.095Z,4.70
2019-03-13T22:09:36.888Z,4.66
2019-03-13T22:12:06.151Z,4.66
2019-03-13T22:14:35.017Z,4.66
2019-03-13T22:17:03.923Z,4.80
2019-03-13T22:19:32.872Z,4.82
2019-03-13T22:22:01.830Z,4.86
2019-03-13T22:24:30.585Z,4.81
2019-03-13T22:26:59.494Z,4.86
2019-03-13T22:29:28.416Z,5.00
2019-03-13T22:31:57.325Z,4.98
2019-03-13T22:34:26.121Z,4.96
2019-03-13T22:36:55.087Z,4.85
2019-03-13T22:39:23.913Z,4.82
2019-03-13T22:41:52.887Z,4.75
2019-03-13T22:44:21.705Z,4.73
2019-03-13T22:46:50.640Z,4.59
2019-03-13T22:49:19.495Z,4.59
2019-03-13T22:51:48.281Z,4.53
2019-03-13T22:54:17.024Z,4.56
2019-03-13T22:56:45.852Z,4.52
2019-03-13T22:59:14.677Z,4.52
2019-03-13T23:01:43.835Z,4.48
2019-03-13T23:04:12.832Z,4.51
2019-03-13T23:06:41.878Z,4.51
2019-03-13T23:09:12.848Z,4.49
2019-03-13T23:11:42.164Z,4.47
2019-03-13T23:14:11.112Z,4.41
2019-03-13T23:16:39.895Z,4.39
2019-03-13T23:19:08.779Z,4.46
2019-03-13T23:21:37.700Z,4.56
2019-03-13T23:24:06.619Z,4.51
2019-03-13T23:26:35.388Z,4.57
2019-03-13T23:29:04.267Z,4.59
2019-03-13T23:31:33.239Z,4.58
2019-03-13T23:34:02.249Z,4.55
2019-03-13T23:36:31.233Z,4.62
2019-03-13T23:39:00.085Z,4.67
2019-03-13T23:41:28.919Z,4.70
2019-03-13T23:43:57.821Z,4.76
2019-03-13T23:46:26.657Z,4.84
2019-03-13T23:48:55.416Z,4.86
2019-03-13T23:51:24.195Z,4.83
2019-03-13T23:53:53.154Z,4.82
2019-03-13T23:56:22.122Z,4.77
2019-03-13T23:58:50.937Z,4.82
